createdAt,value
2023-04-03T00:00:19.009Z,3.67
2023-04-03T00:01:19.034Z,3.64
2023-04-03T00:02:19.056Z,3.67
2023-04-03T00:03:19.091Z,3.63
2023-04-03T00:04:18.998Z,3.62
2023-04-03T00:05:18.954Z,3.60
2023-04-03T00:06:18.898Z,3.62
2023-04-03T00:07:18.914Z,3.62
2023-04-03T00:08:18.876Z,3.62
2023-04-03T00:09:18.882Z,3.63
2023-04-03T00:10:18.844Z,3.63
2023-04-03T00:11:18.938Z,3.62
2023-04-03T00:12:18.834Z,3.59
2023-04-03T00:13:18.815Z,3.59
2023-04-03T00:14:18.789Z,3.59
2023-04-03T00:15:18.816Z,3.57
2023-04-03T00:16:18.798Z,3.56
2023-04-03T00:17:18.782Z,3.56
2023-04-03T00:18:18.741Z,3.53
2023-04-03T00:19:18.736Z,3.49
2023-04-03T00:20:18.730Z,3.44
2023-04-03T00:21:18.731Z,3.45
2023-04-03T00:22:18.702Z,3.46
2023-04-03T00:23:18.683Z,3.45
2023-04-03T00:24:18.673Z,3.45
2023-04-03T00:25:18.718Z,3.44
2023-04-03T00:26:18.663Z,3.49
2023-04-03T00:27:18.681Z,3.50
2023-04-03T00:28:18.661Z,3.53
2023-04-03T00:29:18.693Z,3.50
2023-04-03T00:30:18.694Z,3.46
2023-04-03T00:31:18.750Z,3.44
2023-04-03T00:32:18.582Z,3.44
2023-04-03T00:33:18.582Z,3.42
2023-04-03T00:34:19.537Z,3.42
2023-04-03T00:35:18.534Z,3.41
2023-04-03T00:36:18.599Z,3.35
2023-04-03T00:37:18.573Z,3.34
2023-04-03T00:38:18.550Z,3.33
2023-04-03T00:39:18.564Z,3.31
2023-04-03T00:40:18.607Z,3.31
2023-04-03T00:41:18.471Z,3.31
2023-04-03T00:42:18.489Z,3.33
2023-04-03T00:43:18.468Z,3.28
2023-04-03T00:44:18.518Z,3.28
2023-04-03T00:45:18.456Z,3.23
2023-04-03T00:46:18.574Z,3.20
2023-04-03T00:47:18.474Z,3.17
2023-04-03T00:48:18.419Z,3.16
2023-04-03T00:49:18.506Z,3.13
2023-04-03T00:50:18.406Z,3.13
2023-04-03T00:51:18.386Z,3.12
2023-04-03T00:52:18.353Z,3.08
2023-04-03T00:53:18.422Z,3.08
2023-04-03T00:54:18.294Z,3.08
2023-04-03T00:55:18.446Z,3.05
2023-04-03T00:56:18.249Z,3.04
2023-04-03T00:57:18.319Z,3.04
2023-04-03T00:58:28.860Z,2.99
2023-04-03T00:59:18.814Z,2.99
2023-04-03T01:00:19.570Z,3.01
2023-04-03T01:01:18.434Z,3.05
2023-04-03T01:02:18.493Z,3.08
2023-04-03T01:03:21.712Z,3.08
2023-04-03T01:04:22.949Z,3.10
2023-04-03T01:05:20.171Z,3.10
2023-04-03T01:06:18.791Z,3.12
2023-04-03T01:07:18.650Z,3.10
2023-04-03T01:08:18.665Z,3.10
2023-04-03T01:09:18.868Z,3.13
2023-04-03T01:10:18.487Z,3.08
2023-04-03T01:11:21.220Z,3.08
2023-04-03T01:12:18.494Z,3.04
2023-04-03T01:13:18.696Z,3.04
2023-04-03T01:14:18.859Z,3.05
2023-04-03T01:15:21.332Z,3.07
2023-04-03T01:16:18.520Z,3.07
2023-04-03T01:17:18.718Z,3.04
2023-04-03T01:18:18.472Z,2.99
2023-04-03T01:19:18.423Z,2.97
2023-04-03T01:20:18.240Z,2.97
2023-04-03T01:21:18.360Z,2.97
2023-04-03T01:22:18.381Z,2.97
2023-04-03T01:23:18.792Z,2.95
2023-04-03T01:24:18.134Z,2.92
2023-04-03T01:25:19.236Z,2.92
2023-04-03T01:26:18.182Z,2.92
2023-04-03T01:27:18.002Z,2.89
2023-04-03T01:28:17.995Z,2.89
2023-04-03T01:29:18.051Z,2.84
2023-04-03T01:30:17.869Z,2.83
2023-04-03T01:31:17.833Z,2.81
2023-04-03T01:32:17.855Z,2.79
2023-04-03T01:33:17.822Z,2.81
2023-04-03T01:34:17.833Z,2.81
2023-04-03T01:35:17.814Z,2.83
2023-04-03T01:36:17.831Z,2.83
2023-04-03T01:37:17.762Z,2.83
2023-04-03T01:38:17.773Z,2.79
2023-04-03T01:39:17.775Z,2.80
2023-04-03T01:40:17.786Z,2.81
2023-04-03T01:41:17.738Z,2.77
2023-04-03T01:42:17.698Z,2.76
2023-04-03T01:43:17.662Z,2.73
2023-04-03T01:44:17.689Z,2.73
2023-04-03T01:45:17.667Z,2.76
2023-04-03T01:46:17.763Z,2.77
2023-04-03T01:47:17.658Z,2.74
2023-04-03T01:48:17.660Z,2.73
2023-04-03T01:49:17.646Z,2.74
2023-04-03T01:50:17.640Z,2.73
2023-04-03T01:51:17.605Z,2.74
2023-04-03T01:52:17.579Z,2.73
2023-04-03T01:53:17.571Z,2.74
2023-04-03T01:54:17.559Z,2.77
2023-04-03T01:55:17.548Z,2.80
2023-04-03T01:56:17.587Z,2.77
2023-04-03T01:57:17.591Z,2.74
2023-04-03T01:58:17.560Z,2.69
2023-04-03T01:59:17.480Z,2.68
2023-04-03T02:00:17.500Z,2.66
2023-04-03T02:01:17.514Z,2.66
2023-04-03T02:02:17.485Z,2.65
2023-04-03T02:03:17.473Z,2.68
2023-04-03T02:04:17.494Z,2.68
2023-04-03T02:05:17.404Z,2.66
2023-04-03T02:06:17.432Z,2.65
2023-04-03T02:07:17.372Z,2.63
2023-04-03T02:08:17.413Z,2.62
2023-04-03T02:09:17.391Z,2.61
2023-04-03T02:10:17.360Z,2.55
2023-04-03T02:11:17.300Z,2.55
2023-04-03T02:12:17.323Z,2.51
2023-04-03T02:13:17.310Z,2.51
2023-04-03T02:14:17.304Z,2.47
2023-04-03T02:15:17.337Z,2.48
2023-04-03T02:16:17.300Z,2.47
2023-04-03T02:17:17.290Z,2.45
2023-04-03T02:18:17.227Z,2.43
2023-04-03T02:19:17.210Z,2.43
2023-04-03T02:20:17.229Z,2.41
2023-04-03T02:21:17.229Z,2.40
2023-04-03T02:22:17.220Z,2.41
2023-04-03T02:23:17.174Z,2.40
2023-04-03T02:24:17.143Z,2.41
2023-04-03T02:25:17.152Z,2.43
2023-04-03T02:26:17.153Z,2.41
2023-04-03T02:27:17.154Z,2.37
2023-04-03T02:28:17.153Z,2.36
2023-04-03T02:29:17.067Z,2.32
2023-04-03T02:30:17.128Z,2.30
2023-04-03T02:31:17.081Z,2.30
2023-04-03T02:32:17.119Z,2.30
2023-04-03T02:33:17.044Z,2.30
2023-04-03T02:34:17.042Z,2.29
2023-04-03T02:35:17.034Z,2.23
2023-04-03T02:36:17.076Z,2.26
2023-04-03T02:37:17.015Z,2.25
2023-04-03T02:38:17.025Z,2.26
2023-04-03T02:39:16.983Z,2.25
2023-04-03T02:40:16.978Z,2.23
2023-04-03T02:41:17.002Z,2.22
2023-04-03T02:42:16.945Z,2.22
2023-04-03T02:43:16.934Z,2.20
2023-04-03T02:44:16.906Z,2.19
2023-04-03T02:45:16.904Z,2.19
2023-04-03T02:46:17.080Z,2.14
2023-04-03T02:47:16.901Z,2.14
2023-04-03T02:48:16.860Z,2.14
2023-04-03T02:49:16.905Z,2.14
2023-04-03T02:50:16.859Z,2.14
2023-04-03T02:51:16.857Z,2.15
2023-04-03T02:52:16.798Z,2.19
2023-04-03T02:53:16.774Z,2.19
2023-04-03T02:54:16.805Z,2.19
2023-04-03T02:55:16.791Z,2.20
2023-04-03T02:56:16.798Z,2.23
2023-04-03T02:57:16.765Z,2.22
2023-04-03T02:58:16.720Z,2.22
2023-04-03T02:59:16.743Z,2.23
2023-04-03T03:00:16.782Z,2.25
2023-04-03T03:01:16.775Z,2.23
2023-04-03T03:02:16.721Z,2.20
2023-04-03T03:03:16.704Z,2.20
2023-04-03T03:04:16.658Z,2.20
2023-04-03T03:05:16.653Z,2.20
2023-04-03T03:06:16.635Z,2.20
2023-04-03T03:07:16.637Z,2.20
2023-04-03T03:08:16.650Z,2.18
2023-04-03T03:09:16.625Z,2.18
2023-04-03T03:10:16.573Z,2.12
2023-04-03T03:11:16.611Z,2.05
2023-04-03T03:12:16.580Z,2.05
2023-04-03T03:13:16.521Z,2.05
2023-04-03T03:14:16.593Z,2.04
2023-04-03T03:15:16.496Z,2.01
2023-04-03T03:16:16.554Z,2.02
2023-04-03T03:17:16.504Z,2.02
2023-04-03T03:18:16.512Z,2.05
2023-04-03T03:19:16.468Z,2.00
2023-04-03T03:20:16.491Z,2.01
2023-04-03T03:21:16.513Z,2.01
2023-04-03T03:22:16.416Z,2.02
2023-04-03T03:23:16.463Z,2.01
2023-04-03T03:24:16.481Z,2.01
2023-04-03T03:25:16.405Z,2.01
2023-04-03T03:26:16.433Z,2.02
2023-04-03T03:27:16.344Z,2.01
2023-04-03T03:28:16.408Z,2.01
2023-04-03T03:29:16.369Z,2.01
2023-04-03T03:30:16.384Z,2.02
2023-04-03T03:31:16.537Z,2.05
2023-04-03T03:32:16.319Z,2.04
2023-04-03T03:33:16.332Z,2.02
2023-04-03T03:34:16.382Z,2.01
2023-04-03T03:35:16.270Z,2.01
2023-04-03T03:36:16.330Z,2.04
2023-04-03T03:37:16.245Z,2.04
2023-04-03T03:38:16.233Z,2.02
2023-04-03T03:39:16.271Z,2.05
2023-04-03T03:40:16.211Z,2.02
2023-04-03T03:41:16.237Z,2.05
2023-04-03T03:42:16.215Z,2.08
2023-04-03T03:43:16.142Z,2.05
2023-04-03T03:44:16.324Z,2.05
2023-04-03T03:45:16.147Z,2.09
2023-04-03T03:46:16.146Z,2.12
2023-04-03T03:47:16.117Z,2.09
2023-04-03T03:48:16.154Z,2.12
2023-04-03T03:49:16.102Z,2.14
2023-04-03T03:50:16.085Z,2.18
2023-04-03T03:51:16.092Z,2.22
2023-04-03T03:52:16.124Z,2.23
2023-04-03T03:53:16.078Z,2.23
2023-04-03T03:54:16.027Z,2.26
2023-04-03T03:55:16.043Z,2.29
2023-04-03T03:56:16.045Z,2.27
2023-04-03T03:57:16.032Z,2.27
2023-04-03T03:58:15.965Z,2.26
2023-04-03T03:59:15.928Z,2.22
2023-04-03T04:00:15.990Z,2.22
2023-04-03T04:01:15.929Z,2.26
2023-04-03T04:02:16.019Z,2.23
2023-04-03T04:03:16.130Z,2.23
2023-04-03T04:04:16.041Z,2.23
2023-04-03T04:05:15.922Z,2.26
2023-04-03T04:06:15.944Z,2.26
2023-04-03T04:07:15.890Z,2.29
2023-04-03T04:08:15.936Z,2.29
2023-04-03T04:09:15.858Z,2.32
2023-04-03T04:10:15.848Z,2.29
2023-04-03T04:11:15.829Z,2.32
2023-04-03T04:12:15.817Z,2.33
2023-04-03T04:13:15.836Z,2.32
2023-04-03T04:14:15.856Z,2.26
2023-04-03T04:15:15.746Z,2.25
2023-04-03T04:16:15.825Z,2.25
2023-04-03T04:17:15.768Z,2.25
2023-04-03T04:18:15.760Z,2.23
2023-04-03T04:19:15.700Z,2.22
2023-04-03T04:20:15.757Z,2.20
2023-04-03T04:21:15.769Z,2.20
2023-04-03T04:22:15.712Z,2.22
2023-04-03T04:23:15.716Z,2.22
2023-04-03T04:24:15.675Z,2.18
2023-04-03T04:25:15.668Z,2.15
2023-04-03T04:26:15.673Z,2.14
2023-04-03T04:27:15.577Z,2.12
2023-04-03T04:28:15.626Z,2.12
2023-04-03T04:29:15.616Z,2.14
2023-04-03T04:30:15.582Z,2.14
2023-04-03T04:31:15.659Z,2.14
2023-04-03T04:32:15.603Z,2.15
2023-04-03T04:33:15.576Z,2.20
2023-04-03T04:34:15.566Z,2.23
2023-04-03T04:35:16.947Z,2.25
2023-04-03T04:36:15.643Z,2.26
2023-04-03T04:37:15.513Z,2.26
2023-04-03T04:38:15.471Z,2.27
2023-04-03T04:39:15.547Z,2.29
2023-04-03T04:40:15.439Z,2.27
2023-04-03T04:41:15.489Z,2.27
2023-04-03T04:42:17.441Z,2.27
2023-04-03T04:43:15.460Z,2.27
2023-04-03T04:44:15.375Z,2.27
2023-04-03T04:45:15.453Z,2.27
2023-04-03T04:46:15.405Z,2.27
2023-04-03T04:47:15.372Z,2.29
2023-04-03T04:48:15.409Z,2.32
2023-04-03T04:49:15.406Z,2.29
2023-04-03T04:50:15.454Z,2.32
2023-04-03T04:51:15.497Z,2.33
2023-04-03T04:52:15.329Z,2.33
2023-04-03T04:53:15.337Z,2.32
2023-04-03T04:54:15.380Z,2.29
2023-04-03T04:55:15.333Z,2.27
2023-04-03T04:56:15.262Z,2.30
2023-04-03T04:57:15.327Z,2.30
2023-04-03T04:58:15.241Z,2.32
2023-04-03T04:59:15.198Z,2.32
2023-04-03T05:00:15.200Z,2.32
2023-04-03T05:01:15.299Z,2.32
2023-04-03T05:02:15.218Z,2.30
2023-04-03T05:03:15.223Z,2.30
2023-04-03T05:04:15.301Z,2.29
2023-04-03T05:05:15.270Z,2.29
2023-04-03T05:06:15.172Z,2.29
2023-04-03T05:07:15.150Z,2.32
2023-04-03T05:08:15.145Z,2.32
2023-04-03T05:09:15.210Z,2.32
2023-04-03T05:10:15.120Z,2.29
2023-04-03T05:11:15.032Z,2.29
2023-04-03T05:12:15.028Z,2.30
2023-04-03T05:13:15.068Z,2.30
2023-04-03T05:14:15.076Z,2.30
2023-04-03T05:15:15.045Z,2.30
2023-04-03T05:16:15.067Z,2.32
2023-04-03T05:17:14.978Z,2.32
2023-04-03T05:18:15.024Z,2.32
2023-04-03T05:19:14.967Z,2.32
2023-04-03T05:20:14.959Z,2.32
2023-04-03T05:21:15.012Z,2.32
2023-04-03T05:22:15.070Z,2.33
2023-04-03T05:23:14.978Z,2.32
2023-04-03T05:24:14.903Z,2.30
2023-04-03T05:25:14.972Z,2.30
2023-04-03T05:26:14.873Z,2.32
2023-04-03T05:27:14.855Z,2.32
2023-04-03T05:28:14.858Z,2.36
2023-04-03T05:29:14.848Z,2.36
2023-04-03T05:30:14.887Z,2.32
2023-04-03T05:31:14.827Z,2.30
2023-04-03T05:32:14.821Z,2.30
2023-04-03T05:33:14.764Z,2.27
2023-04-03T05:34:14.871Z,2.29
2023-04-03T05:35:14.793Z,2.27
2023-04-03T05:36:14.808Z,2.29
2023-04-03T05:37:14.736Z,2.26
2023-04-03T05:38:14.740Z,2.26
2023-04-03T05:39:14.753Z,2.26
2023-04-03T05:40:15.892Z,2.30
2023-04-03T05:41:15.084Z,2.32
2023-04-03T05:42:14.692Z,2.33
2023-04-03T05:43:14.689Z,2.37
2023-04-03T05:44:14.684Z,2.38
2023-04-03T05:45:14.728Z,2.37
2023-04-03T05:46:14.701Z,2.38
2023-04-03T05:47:14.711Z,2.40
2023-04-03T05:48:14.710Z,2.43
2023-04-03T05:49:14.708Z,2.44
2023-04-03T05:50:14.734Z,2.45
2023-04-03T05:51:14.558Z,2.45
2023-04-03T05:52:14.568Z,2.45
2023-04-03T05:53:14.543Z,2.45
2023-04-03T05:54:14.533Z,2.44
2023-04-03T05:55:14.567Z,2.44
2023-04-03T05:56:14.451Z,2.44
2023-04-03T05:57:14.552Z,2.44
2023-04-03T05:58:14.489Z,2.45
2023-04-03T05:59:14.434Z,2.47
2023-04-03T06:00:14.481Z,2.48
2023-04-03T06:01:14.441Z,2.50
2023-04-03T06:02:14.376Z,2.51
2023-04-03T06:03:14.647Z,2.55
2023-04-03T06:04:14.562Z,2.58
2023-04-03T06:05:14.386Z,2.61
2023-04-03T06:06:14.335Z,2.63
2023-04-03T06:07:14.311Z,2.66
2023-04-03T06:08:14.316Z,2.68
2023-04-03T06:09:14.334Z,2.69
2023-04-03T06:10:14.335Z,2.69
2023-04-03T06:11:14.253Z,2.69
2023-04-03T06:12:14.245Z,2.69
2023-04-03T06:13:14.265Z,2.71
2023-04-03T06:14:14.316Z,2.71
2023-04-03T06:15:14.262Z,2.74
2023-04-03T06:16:14.178Z,2.77
2023-04-03T06:17:14.273Z,2.80
2023-04-03T06:18:14.171Z,2.83
2023-04-03T06:19:14.173Z,2.84
2023-04-03T06:20:14.214Z,2.83
2023-04-03T06:21:14.149Z,2.84
2023-04-03T06:22:14.200Z,2.84
2023-04-03T06:23:14.167Z,2.87
2023-04-03T06:24:14.077Z,2.90
2023-04-03T06:25:14.124Z,2.94
2023-04-03T06:26:14.077Z,2.92
2023-04-03T06:27:14.077Z,2.94
2023-04-03T06:28:14.095Z,2.92
2023-04-03T06:29:14.058Z,2.97
2023-04-03T06:30:14.194Z,2.98
2023-04-03T06:31:14.148Z,3.01
2023-04-03T06:32:13.985Z,3.02
2023-04-03T06:33:13.965Z,3.07
2023-04-03T06:34:14.051Z,3.12
2023-04-03T06:35:14.029Z,3.13
2023-04-03T06:36:14.006Z,3.16
2023-04-03T06:37:13.959Z,3.20
2023-04-03T06:38:13.920Z,3.22
2023-04-03T06:39:13.893Z,3.28
2023-04-03T06:40:13.917Z,3.33
2023-04-03T06:41:13.884Z,3.35
2023-04-03T06:42:13.887Z,3.39
2023-04-03T06:43:13.843Z,3.42
2023-04-03T06:44:13.854Z,3.45
2023-04-03T06:45:13.817Z,3.44
2023-04-03T06:46:13.850Z,3.46
2023-04-03T06:47:13.858Z,3.52
2023-04-03T06:48:13.851Z,3.56
2023-04-03T06:49:13.793Z,3.57
2023-04-03T06:50:13.779Z,3.60
2023-04-03T06:51:13.748Z,3.63
2023-04-03T06:52:13.764Z,3.67
2023-04-03T06:53:14.002Z,3.72
2023-04-03T06:54:13.746Z,3.77
2023-04-03T06:55:13.699Z,3.80
2023-04-03T06:56:13.707Z,3.81
2023-04-03T06:57:13.701Z,3.84
2023-04-03T06:58:13.663Z,3.89
2023-04-03T06:59:13.664Z,3.93
2023-04-03T07:00:13.664Z,3.98
2023-04-03T07:01:13.731Z,4.04
2023-04-03T07:02:13.629Z,4.07
2023-04-03T07:03:13.597Z,4.10
2023-04-03T07:04:13.700Z,4.14
2023-04-03T07:05:13.584Z,4.18
2023-04-03T07:06:13.580Z,4.21
2023-04-03T07:07:13.611Z,4.24
2023-04-03T07:08:13.526Z,4.28
2023-04-03T07:09:13.529Z,4.32
2023-04-03T07:10:13.782Z,4.35
2023-04-03T07:11:13.507Z,4.43
2023-04-03T07:12:13.470Z,4.44
2023-04-03T07:13:13.511Z,4.47
2023-04-03T07:14:13.510Z,4.50
2023-04-03T07:15:13.490Z,4.53
2023-04-03T07:16:13.669Z,4.57
2023-04-03T07:17:13.424Z,4.64
2023-04-03T07:18:13.517Z,4.69
2023-04-03T07:19:13.393Z,4.71
2023-04-03T07:20:20.950Z,4.72
2023-04-03T07:21:16.080Z,4.79
2023-04-03T07:22:14.098Z,4.84
2023-04-03T07:23:16.123Z,4.87
2023-04-03T07:24:16.191Z,4.88
2023-04-03T07:25:13.343Z,4.91
2023-04-03T07:26:13.331Z,4.97
2023-04-03T07:27:13.297Z,5.01
2023-04-03T07:28:13.268Z,5.02
2023-04-03T07:29:13.302Z,5.05
2023-04-03T07:30:13.287Z,5.09
2023-04-03T07:31:13.314Z,5.15
2023-04-03T07:32:13.224Z,5.20
2023-04-03T07:33:13.261Z,5.24
2023-04-03T07:34:13.226Z,5.26
2023-04-03T07:35:13.226Z,5.29
2023-04-03T07:36:13.225Z,5.29
2023-04-03T07:37:13.186Z,5.32
2023-04-03T07:38:13.211Z,5.29
2023-04-03T07:39:13.152Z,5.32
2023-04-03T07:40:13.149Z,5.37
2023-04-03T07:41:13.135Z,5.41
2023-04-03T07:42:13.104Z,5.42
2023-04-03T07:43:13.109Z,5.44
2023-04-03T07:44:13.175Z,5.51
2023-04-03T07:45:13.065Z,5.55
2023-04-03T07:46:13.132Z,5.60
2023-04-03T07:47:13.038Z,5.63
2023-04-03T07:48:13.080Z,5.66
2023-04-03T07:49:13.027Z,5.69
2023-04-03T07:50:12.990Z,5.75
2023-04-03T07:51:13.027Z,5.77
2023-04-03T07:52:12.970Z,5.77
2023-04-03T07:53:13.022Z,5.77
2023-04-03T07:54:12.997Z,5.78
2023-04-03T07:55:12.959Z,5.80
2023-04-03T07:56:12.950Z,5.84
2023-04-03T07:57:12.955Z,5.84
2023-04-03T07:58:12.992Z,5.87
2023-04-03T07:59:12.916Z,5.92
2023-04-03T08:00:12.898Z,5.96
2023-04-03T08:01:12.903Z,5.99
2023-04-03T08:02:12.876Z,6.02
2023-04-03T08:03:13.114Z,6.06
2023-04-03T08:04:12.961Z,6.13
2023-04-03T08:05:12.873Z,6.14
2023-04-03T08:06:16.160Z,6.20
2023-04-03T08:07:12.808Z,6.21
2023-04-03T08:08:12.802Z,6.24
2023-04-03T08:09:12.777Z,6.24
2023-04-03T08:10:12.723Z,6.25
2023-04-03T08:11:12.760Z,6.27
2023-04-03T08:12:12.737Z,6.30
2023-04-03T08:13:12.715Z,6.30
2023-04-03T08:14:12.715Z,6.30
2023-04-03T08:15:12.734Z,6.32
2023-04-03T08:16:12.792Z,6.36
2023-04-03T08:17:12.689Z,6.36
2023-04-03T08:18:12.651Z,6.38
2023-04-03T08:19:22.475Z,6.40
2023-04-03T08:20:13.631Z,6.45
2023-04-03T08:21:12.624Z,6.48
2023-04-03T08:22:12.626Z,6.50
2023-04-03T08:23:12.644Z,6.51
2023-04-03T08:24:12.588Z,6.53
2023-04-03T08:25:12.571Z,6.55
2023-04-03T08:26:12.582Z,6.57
2023-04-03T08:27:12.557Z,6.58
2023-04-03T08:28:12.561Z,6.60
2023-04-03T08:29:12.555Z,6.63
2023-04-03T08:30:12.525Z,6.69
2023-04-03T08:31:12.550Z,6.71
2023-04-03T08:32:12.480Z,6.75
2023-04-03T08:33:12.585Z,6.78
2023-04-03T08:34:12.472Z,6.79
2023-04-03T08:35:12.492Z,6.83
2023-04-03T08:36:12.467Z,6.82
2023-04-03T08:37:12.445Z,6.86
2023-04-03T08:38:12.401Z,6.87
2023-04-03T08:39:12.399Z,6.89
2023-04-03T08:40:12.347Z,6.90
2023-04-03T08:41:12.387Z,6.87
2023-04-03T08:42:12.356Z,6.87
2023-04-03T08:43:12.328Z,6.86
2023-04-03T08:44:12.336Z,6.89
2023-04-03T08:45:12.296Z,6.93
2023-04-03T08:46:12.332Z,7.00
2023-04-03T08:47:12.297Z,6.90
2023-04-03T08:48:12.348Z,6.87
2023-04-03T08:49:13.916Z,6.90
2023-04-03T08:50:12.248Z,6.90
2023-04-03T08:51:12.649Z,6.94
2023-04-03T08:52:12.269Z,7.00
2023-04-03T08:53:12.233Z,7.01
2023-04-03T08:54:12.208Z,7.08
2023-04-03T08:55:12.194Z,7.14
2023-04-03T08:56:12.178Z,7.18
2023-04-03T08:57:12.185Z,7.19
2023-04-03T08:58:12.137Z,7.21
2023-04-03T08:59:12.136Z,7.23
2023-04-03T09:00:12.116Z,7.26
2023-04-03T09:01:12.196Z,7.24
2023-04-03T09:02:12.072Z,7.24
2023-04-03T09:03:12.205Z,7.23
2023-04-03T09:04:12.107Z,7.19
2023-04-03T09:05:12.047Z,7.21
2023-04-03T09:06:12.050Z,7.24
2023-04-03T09:07:12.026Z,7.29
2023-04-03T09:08:12.048Z,7.32
2023-04-03T09:09:12.014Z,7.32
2023-04-03T09:10:11.994Z,7.30
2023-04-03T09:11:12.000Z,7.30
2023-04-03T09:12:11.968Z,7.32
2023-04-03T09:13:11.997Z,7.34
2023-04-03T09:14:11.965Z,7.41
2023-04-03T09:15:11.952Z,7.42
2023-04-03T09:16:11.941Z,7.45
2023-04-03T09:17:11.912Z,7.44
2023-04-03T09:18:11.922Z,7.45
2023-04-03T09:19:11.904Z,7.45
2023-04-03T09:20:11.879Z,7.48
2023-04-03T09:21:11.864Z,7.48
2023-04-03T09:22:11.843Z,7.51
2023-04-03T09:23:11.848Z,7.48
2023-04-03T09:24:11.854Z,7.48
2023-04-03T09:25:11.824Z,7.47
2023-04-03T09:26:11.766Z,7.50
2023-04-03T09:27:11.808Z,7.54
2023-04-03T09:28:11.751Z,7.57
2023-04-03T09:29:11.761Z,7.66
2023-04-03T09:30:11.715Z,7.77
2023-04-03T09:31:11.704Z,7.81
2023-04-03T09:32:11.721Z,7.84
2023-04-03T09:33:11.767Z,7.84
2023-04-03T09:34:11.715Z,7.84
2023-04-03T09:35:20.501Z,7.85
2023-04-03T09:36:12.684Z,7.88
2023-04-03T09:37:11.652Z,7.89
2023-04-03T09:38:11.641Z,7.88
2023-04-03T09:39:11.616Z,7.89
2023-04-03T09:40:11.613Z,7.94
2023-04-03T09:41:11.583Z,7.91
2023-04-03T09:42:11.576Z,7.94
2023-04-03T09:43:11.570Z,7.96
2023-04-03T09:44:11.611Z,8.00
2023-04-03T09:45:11.564Z,8.00
2023-04-03T09:46:11.590Z,7.99
2023-04-03T09:47:11.523Z,7.99
2023-04-03T09:48:16.275Z,7.96
2023-04-03T09:49:12.502Z,7.99
2023-04-03T09:50:11.526Z,8.00
2023-04-03T09:51:11.465Z,7.92
2023-04-03T09:52:11.461Z,7.94
2023-04-03T09:53:11.426Z,7.96
2023-04-03T09:54:11.443Z,8.02
2023-04-03T09:55:11.422Z,8.03
2023-04-03T09:56:11.408Z,8.09
2023-04-03T09:57:11.475Z,8.12
2023-04-03T09:58:11.394Z,8.14
2023-04-03T09:59:11.377Z,8.18
2023-04-03T10:00:11.401Z,8.14
2023-04-03T10:01:11.387Z,8.09
2023-04-03T10:02:11.336Z,8.04
2023-04-03T10:03:11.332Z,8.04
2023-04-03T10:04:11.387Z,8.03
2023-04-03T10:05:11.377Z,8.04
2023-04-03T10:06:11.315Z,8.06
2023-04-03T10:07:11.287Z,8.07
2023-04-03T10:08:11.269Z,8.10
2023-04-03T10:09:11.219Z,8.06
2023-04-03T10:10:11.257Z,7.99
2023-04-03T10:11:11.219Z,7.99
2023-04-03T10:12:11.210Z,8.00
2023-04-03T10:13:14.355Z,8.00
2023-04-03T10:14:12.190Z,8.03
2023-04-03T10:15:11.205Z,8.06
2023-04-03T10:16:11.221Z,8.10
2023-04-03T10:17:11.166Z,8.14
2023-04-03T10:18:21.661Z,8.21
2023-04-03T10:19:12.093Z,8.27
2023-04-03T10:20:11.104Z,8.29
2023-04-03T10:21:17.542Z,8.27
2023-04-03T10:22:12.097Z,8.28
2023-04-03T10:23:11.096Z,8.28
2023-04-03T10:24:11.086Z,8.28
2023-04-03T10:25:11.071Z,8.28
2023-04-03T10:26:12.108Z,8.29
2023-04-03T10:27:11.032Z,8.36
2023-04-03T10:28:11.027Z,8.37
2023-04-03T10:29:10.970Z,8.34
2023-04-03T10:30:10.982Z,8.31
2023-04-03T10:31:10.994Z,8.27
2023-04-03T10:32:11.002Z,8.25
2023-04-03T10:33:10.946Z,8.28
2023-04-03T10:34:10.946Z,8.31
2023-04-03T10:35:10.879Z,8.32
2023-04-03T10:36:11.019Z,8.31
2023-04-03T10:37:10.905Z,8.32
2023-04-03T10:38:10.907Z,8.34
2023-04-03T10:39:10.878Z,8.36
2023-04-03T10:40:10.846Z,8.37
2023-04-03T10:41:10.805Z,8.39
2023-04-03T10:42:17.080Z,8.40
2023-04-03T10:43:11.796Z,8.40
2023-04-03T10:44:10.780Z,8.43
2023-04-03T10:45:10.813Z,8.47
2023-04-03T10:46:10.816Z,8.54
2023-04-03T10:47:10.744Z,8.55
2023-04-03T10:48:10.776Z,8.57
2023-04-03T10:49:10.739Z,8.58
2023-04-03T10:50:10.717Z,8.61
2023-04-03T10:51:10.678Z,8.60
2023-04-03T10:52:10.723Z,8.55
2023-04-03T10:53:10.657Z,8.60
2023-04-03T10:54:10.656Z,8.60
2023-04-03T10:55:10.655Z,8.64
2023-04-03T10:56:10.662Z,8.63
2023-04-03T10:57:13.187Z,8.60
2023-04-03T10:58:10.662Z,8.58
2023-04-03T10:59:10.578Z,8.61
2023-04-03T11:00:10.623Z,8.65
2023-04-03T11:01:10.655Z,8.68
2023-04-03T11:02:10.636Z,8.78
2023-04-03T11:03:10.730Z,8.83
2023-04-03T11:04:10.559Z,8.88
2023-04-03T11:05:10.558Z,8.86
2023-04-03T11:06:10.583Z,8.86
2023-04-03T11:07:10.504Z,8.86
2023-04-03T11:08:10.510Z,8.80
2023-04-03T11:09:10.450Z,8.79
2023-04-03T11:10:10.487Z,8.78
2023-04-03T11:11:10.434Z,8.83
2023-04-03T11:12:10.492Z,8.86
2023-04-03T11:13:10.450Z,8.89
2023-04-03T11:14:10.484Z,8.91
2023-04-03T11:15:10.421Z,8.88
2023-04-03T11:16:10.481Z,8.88
2023-04-03T11:17:10.381Z,8.88
2023-04-03T11:18:11.263Z,8.80
2023-04-03T11:19:10.370Z,8.76
2023-04-03T11:20:10.363Z,8.78
2023-04-03T11:21:10.320Z,8.79
2023-04-03T11:22:10.341Z,8.73
2023-04-03T11:23:10.299Z,8.70
2023-04-03T11:24:10.289Z,8.73
2023-04-03T11:25:10.278Z,8.73
2023-04-03T11:26:10.262Z,8.78
2023-04-03T11:27:10.241Z,8.80
2023-04-03T11:28:10.267Z,8.88
2023-04-03T11:29:11.257Z,8.93
2023-04-03T11:30:10.189Z,8.96
2023-04-03T11:31:10.265Z,8.96
2023-04-03T11:32:10.192Z,9.00
2023-04-03T11:33:10.199Z,9.00
2023-04-03T11:34:10.175Z,8.97
2023-04-03T11:35:10.135Z,9.00
2023-04-03T11:36:22.852Z,9.03
2023-04-03T11:37:11.098Z,9.04
2023-04-03T11:38:10.098Z,9.12
2023-04-03T11:39:10.101Z,9.13
2023-04-03T11:40:10.138Z,9.13
2023-04-03T11:41:10.097Z,9.15
2023-04-03T11:42:13.173Z,9.17
2023-04-03T11:43:10.067Z,9.20
2023-04-03T11:44:10.019Z,9.22
2023-04-03T11:45:10.016Z,9.22
2023-04-03T11:46:10.097Z,9.22
2023-04-03T11:47:10.100Z,9.22
2023-04-03T11:48:23.186Z,9.24
2023-04-03T11:49:10.968Z,9.27
2023-04-03T11:50:09.972Z,9.27
2023-04-03T11:51:09.965Z,9.32
2023-04-03T11:52:09.908Z,9.34
2023-04-03T11:53:09.954Z,9.34
2023-04-03T11:54:09.943Z,9.35
2023-04-03T11:55:09.884Z,9.35
2023-04-03T11:56:09.881Z,9.34
2023-04-03T11:57:09.896Z,9.32
2023-04-03T11:58:09.876Z,9.34
2023-04-03T11:59:09.874Z,9.34
2023-04-03T12:00:09.836Z,9.32
2023-04-03T12:01:09.777Z,9.32
2023-04-03T12:02:09.792Z,9.31
2023-04-03T12:03:09.934Z,9.30
2023-04-03T12:04:10.037Z,9.27
2023-04-03T12:05:09.765Z,9.31
2023-04-03T12:06:09.768Z,9.34
2023-04-03T12:07:09.723Z,9.37
2023-04-03T12:08:09.715Z,9.35
2023-04-03T12:09:09.680Z,9.41
2023-04-03T12:10:11.388Z,9.41
2023-04-03T12:11:09.683Z,9.37
2023-04-03T12:12:09.674Z,9.38
2023-04-03T12:13:09.641Z,9.40
2023-04-03T12:14:09.639Z,9.41
2023-04-03T12:15:09.652Z,9.41
2023-04-03T12:16:09.599Z,9.40
2023-04-03T12:17:09.587Z,9.38
2023-04-03T12:18:09.722Z,9.34
2023-04-03T12:19:09.622Z,9.31
2023-04-03T12:20:09.576Z,9.32
2023-04-03T12:21:09.523Z,9.38
2023-04-03T12:22:09.553Z,9.48
2023-04-03T12:23:09.525Z,9.49
2023-04-03T12:24:09.554Z,9.49
2023-04-03T12:25:09.454Z,9.50
2023-04-03T12:26:09.500Z,9.49
2023-04-03T12:27:09.482Z,9.49
2023-04-03T12:28:09.487Z,9.45
2023-04-03T12:29:09.443Z,9.48
2023-04-03T12:30:09.460Z,9.49
2023-04-03T12:31:09.501Z,9.53
2023-04-03T12:32:09.411Z,9.52
2023-04-03T12:33:13.266Z,9.49
2023-04-03T12:34:09.382Z,9.49
2023-04-03T12:35:09.339Z,9.52
2023-04-03T12:36:09.490Z,9.52
2023-04-03T12:37:09.319Z,9.50
2023-04-03T12:38:09.337Z,9.48
2023-04-03T12:39:09.324Z,9.44
2023-04-03T12:40:09.314Z,9.41
2023-04-03T12:41:09.270Z,9.40
2023-04-03T12:42:09.272Z,9.40
2023-04-03T12:43:09.257Z,9.42
2023-04-03T12:44:09.257Z,9.42
2023-04-03T12:45:09.217Z,9.44
2023-04-03T12:46:09.301Z,9.50
2023-04-03T12:47:09.255Z,9.53
2023-04-03T12:48:09.213Z,9.53
2023-04-03T12:49:09.204Z,9.59
2023-04-03T12:50:09.310Z,9.60
2023-04-03T12:51:09.146Z,9.59
2023-04-03T12:52:09.180Z,9.60
2023-04-03T12:53:09.132Z,9.59
2023-04-03T12:54:09.202Z,9.58
2023-04-03T12:55:09.145Z,9.58
2023-04-03T12:56:09.074Z,9.60
2023-04-03T12:57:09.125Z,9.60
2023-04-03T12:58:09.097Z,9.62
2023-04-03T12:59:09.057Z,9.63
2023-04-03T13:00:09.129Z,9.62
2023-04-03T13:01:09.086Z,9.59
2023-04-03T13:02:09.057Z,9.58
2023-04-03T13:03:09.061Z,9.63
2023-04-03T13:04:09.025Z,9.65
2023-04-03T13:05:08.993Z,9.65
2023-04-03T13:06:08.986Z,9.65
2023-04-03T13:07:08.981Z,9.60
2023-04-03T13:08:08.959Z,9.62
2023-04-03T13:09:08.960Z,9.59
2023-04-03T13:10:09.067Z,9.59
2023-04-03T13:11:08.912Z,9.62
2023-04-03T13:12:08.910Z,9.60
2023-04-03T13:13:08.911Z,9.65
2023-04-03T13:14:08.891Z,9.63
2023-04-03T13:15:08.828Z,9.62
2023-04-03T13:16:08.891Z,9.60
2023-04-03T13:17:08.825Z,9.58
2023-04-03T13:18:08.840Z,9.56